createdAt,value
2022-11-10T00:00:57.311Z,81.79
2022-11-10T00:03:24.737Z,81.78
2022-11-10T00:05:51.283Z,81.79
2022-11-10T00:08:17.747Z,80.86
2022-11-10T00:10:59.379Z,81.75
2022-11-10T00:13:27.088Z,79.89
2022-11-10T00:16:12.858Z,82.03
2022-11-10T00:18:39.335Z,81.39
2022-11-10T00:21:07.695Z,80.48
2022-11-10T00:23:34.424Z,79.84
2022-11-10T00:26:01.041Z,80.12
2022-11-10T00:28:30.784Z,80.86
2022-11-10T00:30:57.677Z,79.63
2022-11-10T00:33:27.168Z,80.13
2022-11-10T00:35:53.584Z,80.22
2022-11-10T00:38:20.044Z,79.61
2022-11-10T00:40:47.831Z,80.33
2022-11-10T00:43:14.279Z,80.01
2022-11-10T00:45:43.185Z,80.35
2022-11-10T00:48:09.713Z,79.13
2022-11-10T00:50:36.144Z,79.98
2022-11-10T00:53:02.757Z,81.16
2022-11-10T00:55:29.189Z,81.75
2022-11-10T00:57:55.696Z,81.19
2022-11-10T01:00:22.283Z,79.93
2022-11-10T01:02:48.780Z,81.11
2022-11-10T01:05:15.259Z,80.98
2022-11-10T01:07:41.694Z,81.12
2022-11-10T01:10:08.380Z,81.83
2022-11-10T01:12:34.924Z,80.79
2022-11-10T01:15:01.371Z,81.12
2022-11-10T01:17:29.818Z,81.05
2022-11-10T01:19:56.444Z,81.26
2022-11-10T01:22:23.003Z,80.62
2022-11-10T01:24:49.464Z,80.62
2022-11-10T01:27:15.908Z,79.97
2022-11-10T01:29:42.396Z,79.10
2022-11-10T01:32:08.836Z,79.68
2022-11-10T01:34:35.290Z,80.73
2022-11-10T01:37:01.740Z,81.62
2022-11-10T01:39:28.249Z,79.36
2022-11-10T01:41:54.744Z,80.89
2022-11-10T01:44:24.663Z,79.27
2022-11-10T01:46:51.298Z,78.81
2022-11-10T01:49:20.532Z,80.76
2022-11-10T01:51:49.992Z,79.42
2022-11-10T01:54:22.780Z,79.75
2022-11-10T01:56:52.041Z,78.05
2022-11-10T01:59:23.132Z,77.76
2022-11-10T02:01:50.565Z,79.49
2022-11-10T02:04:19.652Z,79.92
2022-11-10T02:06:47.315Z,78.78
2022-11-10T02:09:14.141Z,80.03
2022-11-10T02:11:42.326Z,79.85
2022-11-10T02:14:09.072Z,79.93
2022-11-10T02:16:35.986Z,79.22
2022-11-10T02:19:23.778Z,80.06
2022-11-10T02:21:50.229Z,79.99
2022-11-10T02:24:17.105Z,79.23
2022-11-10T02:26:47.252Z,81.86
2022-11-10T02:29:14.123Z,80.66
2022-11-10T02:31:40.586Z,80.24
2022-11-10T02:34:07.096Z,81.30
2022-11-10T02:36:33.747Z,81.12
2022-11-10T02:39:00.277Z,80.28
2022-11-10T02:41:26.793Z,81.25
2022-11-10T02:43:54.477Z,81.28
2022-11-10T02:46:20.922Z,80.03
2022-11-10T02:48:47.473Z,82.29
2022-11-10T02:51:14.204Z,80.91
2022-11-10T02:53:40.669Z,80.04
2022-11-10T02:56:07.380Z,80.94
2022-11-10T02:58:33.868Z,81.35
2022-11-10T03:01:00.360Z,80.27
2022-11-10T03:03:27.341Z,80.87
2022-11-10T03:05:53.821Z,81.26
2022-11-10T03:08:20.282Z,81.38
2022-11-10T03:10:46.746Z,81.88
2022-11-10T03:13:13.212Z,83.38
2022-11-10T03:15:39.736Z,81.59
2022-11-10T03:18:06.235Z,80.71
2022-11-10T03:20:32.716Z,80.59
2022-11-10T03:23:04.018Z,82.15
2022-11-10T03:25:30.823Z,80.77
2022-11-10T03:27:57.258Z,81.32
2022-11-10T03:30:23.838Z,82.95
2022-11-10T03:32:50.266Z,80.61
2022-11-10T03:35:16.766Z,79.82
2022-11-10T03:37:43.254Z,81.11
2022-11-10T03:40:10.295Z,81.45
2022-11-10T03:42:36.743Z,82.28
2022-11-10T03:45:03.340Z,82.12
2022-11-10T03:47:29.783Z,82.37
2022-11-10T03:49:56.214Z,80.36
2022-11-10T03:52:22.675Z,81.17
2022-11-10T03:54:49.137Z,81.46
2022-11-10T03:57:15.997Z,80.98
2022-11-10T03:59:42.485Z,82.04
2022-11-10T04:02:09.081Z,82.49
2022-11-10T04:04:54.373Z,81.26
2022-11-10T04:07:39.482Z,82.04
2022-11-10T04:10:06.603Z,82.36
2022-11-10T04:12:51.776Z,80.50
2022-11-10T04:15:36.770Z,81.64
2022-11-10T04:18:21.592Z,80.33
2022-11-10T04:20:48.796Z,80.10
2022-11-10T04:23:27.981Z,80.26
2022-11-10T04:26:17.596Z,80.93
2022-11-10T04:28:45.629Z,81.48
2022-11-10T04:31:13.009Z,81.90
2022-11-10T04:33:40.159Z,82.03
2022-11-10T04:36:07.437Z,81.09
2022-11-10T04:38:34.019Z,81.19
2022-11-10T04:41:00.889Z,80.63
2022-11-10T04:43:27.783Z,82.26
2022-11-10T04:45:54.550Z,82.51
2022-11-10T04:48:21.518Z,81.47
2022-11-10T04:50:47.999Z,81.13
2022-11-10T04:53:14.681Z,81.77
2022-11-10T04:55:42.872Z,81.14
2022-11-10T04:58:09.511Z,80.20
2022-11-10T05:00:36.741Z,80.66
2022-11-10T05:03:05.379Z,80.66
2022-11-10T05:05:31.883Z,79.14
2022-11-10T05:07:58.861Z,79.45
2022-11-10T05:10:25.912Z,81.40
2022-11-10T05:12:58.771Z,79.72
2022-11-10T05:15:25.606Z,80.33
2022-11-10T05:17:53.535Z,80.82
2022-11-10T05:20:21.671Z,81.23
2022-11-10T05:23:09.622Z,79.74
2022-11-10T05:25:38.501Z,80.86
2022-11-10T05:28:06.482Z,81.42
2022-11-10T05:30:33.929Z,79.98
2022-11-10T05:33:00.365Z,80.36
2022-11-10T05:35:26.806Z,81.72
2022-11-10T05:37:53.268Z,80.58
2022-11-10T05:40:19.745Z,80.85
2022-11-10T05:42:47.588Z,80.36
2022-11-10T05:45:15.316Z,80.02
2022-11-10T05:47:41.950Z,79.77
2022-11-10T05:50:09.017Z,80.15
2022-11-10T05:52:35.684Z,80.27
2022-11-10T05:55:02.137Z,81.05
2022-11-10T05:57:28.621Z,81.06
2022-11-10T05:59:55.099Z,80.17
2022-11-10T06:02:21.541Z,81.31
2022-11-10T06:04:48.000Z,81.19
2022-11-10T06:07:14.812Z,80.78
2022-11-10T06:09:41.516Z,80.41
2022-11-10T06:12:08.141Z,81.38
2022-11-10T06:14:34.652Z,81.46
2022-11-10T06:17:01.111Z,82.04
2022-11-10T06:19:27.584Z,81.87
2022-11-10T06:22:00.472Z,81.51
2022-11-10T06:24:28.976Z,81.67
2022-11-10T06:26:55.409Z,82.71
2022-11-10T06:29:26.656Z,81.28
2022-11-10T06:31:53.468Z,81.23
2022-11-10T06:34:19.930Z,83.06
2022-11-10T06:36:46.356Z,82.86
2022-11-10T06:39:12.874Z,83.14
2022-11-10T06:41:39.298Z,82.38
2022-11-10T06:44:06.474Z,82.95
2022-11-10T06:46:35.869Z,82.70
2022-11-10T06:49:04.945Z,81.72
2022-11-10T06:51:31.363Z,81.50
2022-11-10T06:53:57.898Z,82.54
2022-11-10T06:56:24.410Z,82.29
2022-11-10T06:58:50.851Z,82.22
2022-11-10T07:01:22.118Z,82.08
2022-11-10T07:04:17.541Z,82.57
2022-11-10T07:06:35.490Z,81.96
2022-11-10T07:09:01.981Z,81.87
2022-11-10T07:11:28.415Z,83.09
2022-11-10T07:13:54.873Z,82.52
2022-11-10T07:16:24.482Z,83.18
2022-11-10T07:18:51.813Z,83.29
2022-11-10T07:21:18.311Z,81.61
2022-11-10T07:23:46.855Z,82.68
2022-11-10T07:26:13.465Z,83.46
2022-11-10T07:28:39.917Z,81.83
2022-11-10T07:31:06.361Z,82.05
2022-11-10T07:33:32.803Z,82.32
2022-11-10T07:36:03.926Z,81.62
2022-11-10T07:38:30.402Z,81.62
2022-11-10T07:40:57.000Z,83.11
2022-11-10T07:43:25.229Z,82.21
2022-11-10T07:45:52.912Z,82.47
2022-11-10T07:48:19.877Z,83.84
2022-11-10T07:50:46.706Z,83.41
2022-11-10T07:53:15.393Z,81.18
2022-11-10T07:55:44.236Z,82.26
2022-11-10T07:58:12.224Z,82.21
2022-11-10T08:00:38.959Z,83.06
2022-11-10T08:03:07.405Z,82.50
2022-11-10T08:05:34.343Z,82.95
2022-11-10T08:08:00.847Z,83.78
2022-11-10T08:10:28.391Z,81.85
2022-11-10T08:13:02.266Z,82.53
2022-11-10T08:15:29.687Z,81.89
2022-11-10T08:18:08.717Z,81.78
2022-11-10T08:20:35.315Z,82.20
2022-11-10T08:23:05.048Z,83.02
2022-11-10T08:28:06.994Z,82.10
2022-11-10T08:30:35.303Z,83.91
2022-11-10T08:33:03.044Z,81.95
2022-11-10T08:35:31.065Z,84.69
2022-11-10T08:37:57.917Z,82.95
2022-11-10T08:40:27.701Z,83.26
2022-11-10T08:43:01.624Z,83.07
2022-11-10T08:45:28.579Z,81.97
2022-11-10T08:48:03.120Z,82.22
2022-11-10T08:50:29.952Z,82.73
2022-11-10T08:52:57.291Z,83.08
2022-11-10T08:55:23.898Z,81.76
2022-11-10T08:57:50.368Z,83.21
2022-11-10T09:00:17.495Z,81.84
2022-11-10T09:02:44.039Z,82.59
2022-11-10T09:05:10.671Z,82.27
2022-11-10T09:07:45.107Z,83.30
2022-11-10T09:10:13.172Z,82.76
2022-11-10T09:12:40.998Z,82.19
2022-11-10T09:15:08.372Z,82.96
2022-11-10T09:17:35.051Z,82.05
2022-11-10T09:20:01.758Z,81.34
2022-11-10T09:22:28.390Z,82.53
2022-11-10T09:24:54.846Z,81.40
2022-11-10T09:27:21.433Z,80.75
2022-11-10T09:29:47.884Z,80.08
2022-11-10T09:32:14.307Z,80.25
2022-11-10T09:34:40.767Z,81.32
2022-11-10T09:37:07.218Z,80.50
2022-11-10T09:39:33.658Z,79.79
2022-11-10T09:42:00.091Z,80.54
2022-11-10T09:44:31.074Z,81.08
2022-11-10T09:47:19.023Z,81.95
2022-11-10T09:50:00.996Z,81.40
2022-11-10T09:52:29.989Z,81.00
2022-11-10T09:55:03.702Z,80.87
2022-11-10T09:57:30.424Z,81.06
2022-11-10T09:59:57.033Z,79.82
2022-11-10T10:02:38.616Z,81.01
2022-11-10T10:05:47.402Z,80.08
2022-11-10T10:08:22.985Z,79.52
2022-11-10T10:11:07.253Z,78.66
2022-11-10T10:13:51.283Z,78.50
2022-11-10T10:16:49.843Z,80.49
2022-11-10T10:19:58.490Z,78.82
2022-11-10T10:22:34.952Z,79.00
2022-11-10T10:25:04.186Z,79.27
2022-11-10T10:27:31.776Z,77.09
2022-11-10T10:29:58.385Z,77.70
2022-11-10T10:32:26.680Z,78.42
2022-11-10T10:34:53.157Z,76.80
2022-11-10T10:37:46.473Z,77.40
2022-11-10T10:40:31.059Z,77.29
2022-11-10T10:42:59.718Z,76.67
2022-11-10T10:45:29.074Z,76.88
2022-11-10T10:47:57.422Z,76.94
2022-11-10T10:50:35.552Z,76.87
2022-11-10T10:53:11.075Z,77.14
2022-11-10T10:55:38.138Z,76.37
2022-11-10T10:58:18.735Z,76.29
2022-11-10T11:00:47.808Z,77.11
2022-11-10T11:03:48.737Z,76.38
2022-11-10T11:06:15.536Z,77.08
2022-11-10T11:09:04.306Z,77.04
2022-11-10T11:11:33.396Z,75.52
2022-11-10T11:14:19.984Z,76.44
2022-11-10T11:17:04.437Z,77.56
2022-11-10T11:19:33.749Z,75.59
2022-11-10T11:22:12.373Z,74.95
2022-11-10T11:25:06.807Z,77.13
2022-11-10T11:28:03.741Z,77.72
2022-11-10T11:30:53.408Z,77.04
2022-11-10T11:33:42.040Z,76.83
2022-11-10T11:36:33.154Z,77.03
2022-11-10T11:39:21.964Z,75.60
2022-11-10T11:42:20.061Z,75.10
2022-11-10T11:45:14.297Z,76.59
2022-11-10T11:48:19.799Z,75.33
2022-11-10T11:50:51.902Z,75.25
2022-11-10T11:53:46.397Z,73.89
2022-11-10T11:56:27.068Z,75.81
2022-11-10T11:59:32.567Z,75.93
2022-11-10T12:02:23.680Z,75.32
2022-11-10T12:05:04.061Z,74.98
2022-11-10T12:07:56.073Z,73.25
2022-11-10T12:10:52.835Z,75.53
2022-11-10T12:13:47.520Z,75.25
2022-11-10T12:16:23.456Z,75.68
2022-11-10T12:19:01.372Z,75.00
2022-11-10T12:21:32.850Z,76.93
2022-11-10T12:24:37.438Z,76.39
2022-11-10T12:27:15.494Z,76.39
2022-11-10T12:30:03.242Z,75.04
2022-11-10T12:32:46.862Z,75.01
2022-11-10T12:35:20.286Z,76.05
2022-11-10T12:37:53.719Z,76.61
2022-11-10T12:40:27.791Z,77.17
2022-11-10T12:43:00.458Z,77.36
2022-11-10T12:45:32.548Z,75.14
2022-11-10T12:47:59.882Z,76.65
2022-11-10T12:50:42.395Z,75.99
2022-11-10T12:53:31.306Z,74.46
2022-11-10T12:56:11.748Z,76.44
2022-11-10T12:58:38.238Z,75.62
2022-11-10T13:01:14.697Z,76.50
2022-11-10T13:03:54.278Z,74.74
2022-11-10T13:06:50.639Z,77.40
2022-11-10T13:09:32.091Z,75.79
2022-11-10T13:12:10.749Z,75.75
2022-11-10T13:14:38.575Z,75.46
2022-11-10T13:17:05.629Z,76.08
2022-11-10T13:19:38.906Z,75.81
2022-11-10T13:22:10.220Z,75.91
2022-11-10T13:24:38.514Z,74.66
2022-11-10T13:27:13.952Z,74.89
2022-11-10T13:29:43.470Z,75.90
2022-11-10T13:32:25.479Z,75.44
2022-11-10T13:34:52.647Z,76.18
2022-11-10T13:37:46.919Z,75.45
2022-11-10T13:40:25.686Z,75.67
2022-11-10T13:42:58.276Z,75.12
2022-11-10T13:45:43.288Z,75.79
2022-11-10T13:48:12.840Z,74.52
2022-11-10T13:51:01.341Z,74.03
2022-11-10T13:53:49.666Z,75.82
2022-11-10T13:56:41.608Z,73.88
2022-11-10T13:59:27.381Z,74.70
2022-11-10T14:01:53.930Z,74.29
2022-11-10T14:04:35.702Z,74.47
2022-11-10T14:07:03.763Z,74.71
2022-11-10T14:09:41.451Z,74.30
2022-11-10T14:12:28.792Z,74.42
2022-11-10T14:15:00.767Z,74.77
2022-11-10T14:17:29.867Z,74.64
2022-11-10T14:19:56.421Z,74.34
2022-11-10T14:22:27.816Z,74.33
2022-11-10T14:24:57.607Z,74.66
2022-11-10T14:27:27.307Z,75.05
2022-11-10T14:30:30.448Z,74.89
2022-11-10T14:33:14.388Z,73.24
2022-11-10T14:36:13.452Z,72.81
2022-11-10T14:38:43.804Z,72.74
2022-11-10T14:41:16.792Z,73.06
2022-11-10T14:43:43.257Z,73.56
2022-11-10T14:46:15.303Z,73.66
2022-11-10T14:48:41.841Z,73.91
2022-11-10T14:51:17.448Z,73.64
2022-11-10T14:53:48.472Z,74.46
2022-11-10T14:56:19.750Z,74.54
2022-11-10T14:58:47.269Z,73.99
2022-11-10T15:01:34.652Z,73.83
2022-11-10T15:04:03.324Z,74.22
2022-11-10T15:06:30.142Z,74.41
2022-11-10T15:08:57.044Z,73.63
2022-11-10T15:11:41.437Z,74.16
2022-11-10T15:14:44.733Z,74.47
2022-11-10T15:17:20.400Z,73.87
2022-11-10T15:19:46.994Z,74.23
2022-11-10T15:22:18.177Z,74.52
2022-11-10T15:24:46.930Z,74.99
2022-11-10T15:27:23.473Z,74.76
2022-11-10T15:29:50.708Z,72.87
2022-11-10T15:32:21.127Z,75.70
2022-11-10T15:34:48.833Z,76.07
2022-11-10T15:37:31.100Z,74.35
2022-11-10T15:40:46.696Z,74.25
2022-11-10T15:43:26.769Z,73.46
2022-11-10T15:46:15.014Z,73.96
2022-11-10T15:48:49.269Z,73.63
2022-11-10T15:51:22.841Z,73.84
2022-11-10T15:53:54.304Z,73.70
2022-11-10T15:56:22.675Z,74.82
2022-11-10T15:58:51.048Z,74.64
2022-11-10T16:01:18.007Z,74.44
2022-11-10T16:03:45.855Z,74.99
2022-11-10T16:06:16.482Z,73.76
2022-11-10T16:08:43.270Z,73.60
2022-11-10T16:11:17.440Z,73.21
2022-11-10T16:13:44.060Z,74.10
2022-11-10T16:16:15.378Z,73.72
2022-11-10T16:18:43.932Z,74.76
2022-11-10T16:21:19.753Z,74.27
2022-11-10T16:23:46.781Z,74.00
2022-11-10T16:26:14.818Z,75.29
2022-11-10T16:28:44.118Z,74.13
2022-11-10T16:31:11.539Z,72.99
2022-11-10T16:33:38.161Z,72.25
2022-11-10T16:36:04.927Z,73.23
2022-11-10T16:38:32.144Z,74.13
2022-11-10T16:41:03.694Z,74.74
2022-11-10T16:43:31.411Z,72.80
2022-11-10T16:46:00.587Z,73.14
2022-11-10T16:48:31.967Z,72.55
2022-11-10T16:51:00.102Z,73.88
2022-11-10T16:53:31.283Z,72.85
2022-11-10T16:55:58.328Z,72.90
2022-11-10T16:58:26.039Z,72.63
2022-11-10T17:00:54.198Z,73.86
2022-11-10T17:03:27.316Z,73.58
2022-11-10T17:05:53.839Z,72.65
2022-11-10T17:08:23.207Z,72.78
2022-11-10T17:10:50.939Z,72.17
2022-11-10T17:13:18.018Z,73.63
2022-11-10T17:15:45.467Z,73.84
2022-11-10T17:18:17.309Z,73.77
2022-11-10T17:20:47.025Z,73.80
2022-11-10T17:23:14.677Z,73.46
2022-11-10T17:25:41.652Z,73.89
2022-11-10T17:28:16.556Z,71.97
2022-11-10T17:30:43.194Z,72.43
2022-11-10T17:33:10.174Z,71.89
2022-11-10T17:35:45.514Z,72.30
2022-11-10T17:38:13.389Z,72.89
2022-11-10T17:40:42.131Z,72.96
2022-11-10T17:43:12.964Z,74.16
2022-11-10T17:45:39.841Z,72.03
2022-11-10T17:48:07.136Z,73.47
2022-11-10T17:50:35.792Z,73.10
2022-11-10T17:53:23.332Z,72.17
2022-11-10T17:55:50.252Z,72.93
2022-11-10T17:58:17.611Z,72.31
2022-11-10T18:00:47.473Z,71.99
2022-11-10T18:03:19.663Z,71.78
2022-11-10T18:05:54.476Z,73.14
2022-11-10T18:08:20.959Z,71.42
2022-11-10T18:14:56.379Z,72.69
2022-11-10T18:17:25.432Z,73.01
2022-11-10T18:19:52.661Z,73.03
2022-11-10T18:22:22.757Z,71.16
2022-11-10T18:24:49.678Z,71.96
2022-11-10T18:27:16.879Z,73.07
2022-11-10T18:29:43.915Z,73.31
2022-11-10T18:32:30.713Z,73.00
2022-11-10T18:35:00.359Z,71.97
2022-11-10T18:37:30.447Z,73.42
2022-11-10T18:39:57.277Z,73.38
2022-11-10T18:42:35.439Z,73.24
2022-11-10T18:45:03.647Z,72.50
2022-11-10T18:47:30.851Z,73.74
2022-11-10T18:49:58.440Z,72.48
2022-11-10T18:52:26.425Z,72.81
2022-11-10T18:54:54.627Z,73.39
2022-11-10T18:57:22.715Z,74.07
2022-11-10T18:59:51.045Z,73.09
2022-11-10T19:02:21.296Z,74.25
2022-11-10T19:04:53.399Z,73.09
2022-11-10T19:07:24.994Z,73.68
2022-11-10T19:09:52.631Z,73.04
2022-11-10T19:12:25.434Z,72.53
2022-11-10T19:14:58.607Z,73.05
2022-11-10T19:17:25.559Z,73.26
2022-11-10T19:19:56.454Z,73.12
2022-11-10T19:22:23.934Z,72.60
2022-11-10T19:25:07.484Z,73.64
2022-11-10T19:27:35.521Z,73.30
2022-11-10T19:30:02.167Z,72.70
2022-11-10T19:32:29.920Z,73.68
2022-11-10T19:34:59.275Z,73.46
2022-11-10T19:37:28.674Z,72.46
2022-11-10T19:39:58.998Z,72.10
2022-11-10T19:42:26.080Z,71.93
2022-11-10T19:44:54.413Z,72.95
2022-11-10T19:47:21.868Z,72.44
2022-11-10T19:49:50.630Z,73.49
2022-11-10T19:52:27.620Z,73.26
2022-11-10T19:54:54.469Z,73.10
2022-11-10T19:57:22.805Z,73.14
2022-11-10T19:59:49.964Z,72.89
2022-11-10T20:02:19.493Z,71.83
2022-11-10T20:05:06.095Z,70.77
2022-11-10T20:07:51.588Z,72.04
2022-11-10T20:10:19.192Z,72.85
2022-11-10T20:12:47.654Z,73.06
2022-11-10T20:15:16.081Z,72.86
2022-11-10T20:17:44.204Z,72.57
2022-11-10T20:20:12.409Z,72.30
2022-11-10T20:22:40.661Z,73.66
2022-11-10T20:27:35.819Z,71.91
2022-11-10T20:30:03.388Z,72.96
2022-11-10T20:32:31.061Z,72.42
2022-11-10T20:34:58.032Z,71.72
2022-11-10T20:37:24.873Z,72.17
2022-11-10T20:39:53.379Z,72.24
2022-11-10T20:42:20.565Z,72.70
2022-11-10T20:44:47.080Z,72.02
2022-11-10T20:47:13.606Z,73.13
2022-11-10T20:49:40.100Z,72.57
2022-11-10T20:52:06.563Z,72.74
2022-11-10T20:54:33.362Z,72.74
2022-11-10T20:56:59.824Z,70.66
2022-11-10T20:59:26.251Z,72.00
2022-11-10T21:01:52.923Z,71.76
2022-11-10T21:04:19.452Z,70.57
2022-11-10T21:06:45.993Z,71.36
2022-11-10T21:09:12.722Z,71.58
2022-11-10T21:11:57.767Z,72.04
2022-11-10T21:14:24.220Z,71.51
2022-11-10T21:16:50.671Z,71.43
2022-11-10T21:19:17.218Z,70.17
2022-11-10T21:21:43.735Z,71.17
2022-11-10T21:24:10.717Z,70.87
2022-11-10T21:26:37.791Z,71.68
2022-11-10T21:29:05.145Z,71.67
2022-11-10T21:31:31.703Z,71.87
2022-11-10T21:33:59.145Z,72.08
2022-11-10T21:36:29.881Z,71.85
2022-11-10T21:38:57.103Z,70.85
2022-11-10T21:41:23.610Z,70.81
2022-11-10T21:43:50.098Z,71.30
2022-11-10T21:46:16.748Z,70.29
2022-11-10T21:48:43.293Z,70.57
2022-11-10T21:51:11.091Z,70.95
2022-11-10T21:53:39.693Z,69.82
2022-11-10T21:56:07.732Z,70.32
2022-11-10T21:58:34.887Z,71.15
2022-11-10T22:01:02.336Z,71.36
2022-11-10T22:03:29.999Z,71.29
2022-11-10T22:06:03.048Z,71.21
2022-11-10T22:08:29.558Z,70.21
2022-11-10T22:11:14.829Z,70.84
2022-11-10T22:13:59.890Z,71.11
2022-11-10T22:16:47.550Z,70.13
2022-11-10T22:19:17.283Z,71.26
2022-11-10T22:21:44.345Z,70.24
2022-11-10T22:24:23.373Z,70.22
2022-11-10T22:26:50.675Z,71.77
2022-11-10T22:29:17.605Z,70.38
2022-11-10T22:31:44.487Z,71.02
2022-11-10T22:34:11.158Z,71.52
2022-11-10T22:36:37.864Z,69.90
2022-11-10T22:39:04.771Z,70.50
2022-11-10T22:41:49.944Z,70.90
2022-11-10T22:44:17.089Z,70.98
2022-11-10T22:46:48.053Z,70.93
2022-11-10T22:49:15.800Z,70.43
2022-11-10T22:51:43.957Z,70.49
2022-11-10T22:54:20.898Z,69.68
2022-11-10T22:56:48.189Z,69.34
2022-11-10T22:59:17.730Z,69.68
2022-11-10T23:01:44.554Z,69.89
2022-11-10T23:04:11.956Z,69.63
2022-11-10T23:06:40.271Z,71.60
2022-11-10T23:09:07.253Z,70.13
2022-11-10T23:11:34.246Z,70.14
2022-11-10T23:14:00.693Z,70.69
2022-11-10T23:16:29.604Z,69.50
2022-11-10T23:18:57.382Z,70.44
2022-11-10T23:21:26.832Z,69.60
2022-11-10T23:23:53.791Z,69.92
2022-11-10T23:26:22.526Z,70.24
2022-11-10T23:28:49.290Z,72.08
2022-11-10T23:31:18.564Z,72.12
2022-11-10T23:33:46.871Z,70.77
2022-11-10T23:36:16.396Z,69.77
2022-11-10T23:38:43.112Z,70.00
2022-11-10T23:41:16.754Z,69.29
2022-11-10T23:43:43.551Z,70.58
2022-11-10T23:46:10.957Z,69.92
2022-11-10T23:48:38.135Z,70.89
2022-11-10T23:51:05.458Z,71.50
2022-11-10T23:53:32.791Z,69.23
2022-11-10T23:56:04.889Z,69.83
2022-11-10T23:58:32.536Z,70.57
